Time;durP1;ratioP1;P1;durP2;ratioP2;P2;SDS_P1;SDS_P2;PMS_P1;PMS_P2;Temp;Humidity;BMP_temperature;BMP_pressure;BME280_temperature;BME280_humidity;BME280_pressure;Samples;Min_cycle;Max_cycle;Signal;HPM_P1;HPM_P2
2021/11/07 00:12:26;;;;;;;6.07;3.90;;;;;;;;;;4877985;29;20048;-74
2021/11/07 00:15:30;;;;;;;11.70;4.63;;;;;;;;;;4878093;29;20053;-74
2021/11/07 00:18:45;;;;;;;9.38;4.07;;;;;;;;;;4877969;29;20041;-74
2021/11/07 00:22:14;;;;;;;6.85;3.22;;;;;;;;;;4877889;29;20053;-74
2021/11/07 00:25:39;;;;;;;6.93;3.95;;;;;;;;;;4877921;29;20041;-74
2021/11/07 00:28:49;;;;;;;7.80;3.60;;;;;;;;;;4877871;29;20053;-74
2021/11/07 00:38:58;;;;;;;10.35;3.55;;;;;;;;;;4877974;29;20053;-74
2021/11/07 00:52:04;;;;;;;8.50;3.80;;;;;;;;;;4877793;29;20037;-72
2021/11/07 00:55:15;;;;;;;;;;;;;;;;;;4878025;29;20045;-72
2021/11/07 00:58:32;;;;;;;10.38;3.80;;;;;;;;;;4877733;29;19919;-72
2021/11/07 01:01:40;;;;;;;6.28;3.38;;;;;;;;;;4876416;29;20048;-72
2021/11/07 01:04:47;;;;;;;6.20;4.05;;;;;;;;;;4877069;29;20037;-72
2021/11/07 01:07:51;;;;;;;8.15;3.80;;;;;;;;;;4877483;29;20041;-72
2021/11/07 01:10:57;;;;;;;8.52;4.28;;;;;;;;;;4877202;29;20037;-73
2021/11/07 01:14:02;;;;;;;7.45;3.88;;;;;;;;;;4877192;29;20037;-74
2021/11/07 01:17:06;;;;;;;5.72;3.35;;;;;;;;;;4877391;29;20049;-74
2021/11/07 01:20:11;;;;;;;9.07;3.78;;;;;;;;;;4877138;29;20049;-73
2021/11/07 01:23:41;;;;;;;8.77;3.38;;;;;;;;;;4877292;29;20049;-73
2021/11/07 01:26:50;;;;;;;7.10;4.00;;;;;;;;;;4877343;29;20049;-73
2021/11/07 01:29:56;;;;;;;8.73;3.80;;;;;;;;;;4877015;29;20045;-73
2021/11/07 01:33:04;;;;;;;16.20;4.03;;;;;;;;;;4877374;29;20041;-73
2021/11/07 01:42:57;;;;;;;14.05;4.10;;;;;;;;;;4877172;29;20049;-73
2021/11/07 01:46:12;;;;;;;10.05;3.40;;;;;;;;;;4876973;29;20413;-73
2021/11/07 01:49:20;;;;;;;10.73;3.47;;;;;;;;;;4876725;29;20045;-73
2021/11/07 01:52:26;;;;;;;11.32;3.90;;;;;;;;;;4876616;29;20033;-73
2021/11/07 01:55:30;;;;;;;7.28;2.95;;;;;;;;;;4876818;29;20052;-73
2021/11/07 01:58:36;;;;;;;9.35;3.65;;;;;;;;;;4877071;29;20041;-73
2021/11/07 02:01:40;;;;;;;8.10;3.30;;;;;;;;;;4876732;29;20048;-73
2021/11/07 02:04:45;;;;;;;6.97;3.63;;;;;;;;;;4876978;29;20041;-72
2021/11/07 02:07:49;;;;;;;7.10;3.25;;;;;;;;;;4876989;29;20037;-73
2021/11/07 02:10:55;;;;;;;9.98;4.13;;;;;;;;;;4876966;29;20489;-72
2021/11/07 02:14:01;;;;;;;9.77;3.38;;;;;;;;;;4880116;29;20045;-73
2021/11/07 02:17:06;;;;;;;9.63;3.97;;;;;;;;;;4880497;29;20044;-73
2021/11/07 02:20:12;;;;;;;6.95;3.33;;;;;;;;;;4880368;29;20045;-73
2021/11/07 02:23:18;;;;;;;11.45;3.60;;;;;;;;;;4880370;29;20494;-73
2021/11/07 02:26:22;;;;;;;9.15;3.60;;;;;;;;;;4880112;29;20042;-73
2021/11/07 02:29:28;;;;;;;6.80;3.00;;;;;;;;;;4879873;29;20056;-73
2021/11/07 02:32:33;;;;;;;9.30;3.17;;;;;;;;;;4880224;29;20044;-73
2021/11/07 02:35:38;;;;;;;10.02;3.95;;;;;;;;;;4879813;29;20037;-73
2021/11/07 02:38:43;;;;;;;9.02;3.30;;;;;;;;;;4880101;29;20509;-73
2021/11/07 02:41:47;;;;;;;6.65;3.25;;;;;;;;;;4879761;29;20057;-73
2021/11/07 02:44:52;;;;;;;6.10;2.90;;;;;;;;;;4878921;29;20049;-73
2021/11/07 02:47:57;;;;;;;12.02;3.45;;;;;;;;;;4879844;29;20045;-73
2021/11/07 02:51:01;;;;;;;9.82;3.30;;;;;;;;;;4879517;29;20045;-74
2021/11/07 02:54:07;;;;;;;9.88;3.20;;;;;;;;;;4879633;29;20044;-73
2021/11/07 02:57:12;;;;;;;7.20;3.30;;;;;;;;;;4879526;29;20041;-73
2021/11/07 03:00:19;;;;;;;6.22;2.85;;;;;;;;;;4879226;29;20037;-73
2021/11/07 03:03:23;;;;;;;5.68;3.20;;;;;;;;;;4879582;29;20041;-73
2021/11/07 03:06:31;;;;;;;5.30;3.38;;;;;;;;;;4879628;29;20506;-73
2021/11/07 03:09:36;;;;;;;6.78;3.15;;;;;;;;;;4879291;29;20045;-73
2021/11/07 03:12:41;;;;;;;8.93;3.15;;;;;;;;;;4879174;29;20489;-73
2021/11/07 03:15:46;;;;;;;7.90;3.45;;;;;;;;;;4879406;29;20489;-73
2021/11/07 03:18:50;;;;;;;8.63;3.58;;;;;;;;;;4879450;29;20053;-73
2021/11/07 03:21:56;;;;;;;5.50;2.67;;;;;;;;;;4879146;29;20049;-73
2021/11/07 03:25:03;;;;;;;9.48;3.25;;;;;;;;;;4878344;29;20041;-73
2021/11/07 03:28:07;;;;;;;10.20;3.40;;;;;;;;;;4878972;29;20041;-73
2021/11/07 03:34:30;;;;;;;4.75;3.33;;;;;;;;;;4879153;29;20048;-73
2021/11/07 03:37:44;;;;;;;8.93;3.15;;;;;;;;;;4878783;29;20041;-73
2021/11/07 03:40:48;;;;;;;7.70;3.35;;;;;;;;;;4888770;29;20045;-73
2021/11/07 03:43:53;;;;;;;6.15;3.35;;;;;;;;;;4878650;29;20390;-74
2021/11/07 03:46:57;;;;;;;4.75;3.08;;;;;;;;;;4879055;29;20367;-73
2021/11/07 03:50:04;;;;;;;6.20;3.35;;;;;;;;;;4878819;29;20045;-73
2021/11/07 03:53:08;;;;;;;4.78;3.28;;;;;;;;;;4878727;29;20041;-73
2021/11/07 03:56:12;;;;;;;6.22;3.05;;;;;;;;;;4877886;29;20045;-73
2021/11/07 03:59:17;;;;;;;7.00;3.13;;;;;;;;;;4878598;29;20041;-73
2021/11/07 04:02:21;;;;;;;5.05;2.88;;;;;;;;;;4878186;29;20053;-73
2021/11/07 04:05:25;;;;;;;7.38;3.20;;;;;;;;;;4878343;29;20033;-73
2021/11/07 04:08:29;;;;;;;10.98;3.15;;;;;;;;;;4878468;29;20045;-72
2021/11/07 04:11:34;;;;;;;5.65;3.42;;;;;;;;;;4878412;29;20534;-73
2021/11/07 04:14:38;;;;;;;8.48;3.10;;;;;;;;;;4877545;29;20360;-73
2021/11/07 04:17:42;;;;;;;7.00;3.30;;;;;;;;;;4878359;29;20056;-73
2021/11/07 04:20:47;;;;;;;10.55;3.45;;;;;;;;;;4877910;29;20052;-73
2021/11/07 04:23:52;;;;;;;6.50;2.88;;;;;;;;;;4877974;29;20394;-73
2021/11/07 04:26:56;;;;;;;7.50;2.85;;;;;;;;;;4888154;29;20045;-73
2021/11/07 04:30:00;;;;;;;7.82;3.17;;;;;;;;;;4877708;29;20045;-73
2021/11/07 04:33:05;;;;;;;7.32;3.25;;;;;;;;;;4877790;29;20037;-73
2021/11/07 04:36:09;;;;;;;5.68;3.33;;;;;;;;;;4877136;29;20041;-73
2021/11/07 04:39:14;;;;;;;6.05;3.17;;;;;;;;;;4877973;29;20045;-73
2021/11/07 04:42:18;;;;;;;8.75;3.15;;;;;;;;;;4877699;29;20053;-73
2021/11/07 04:45:23;;;;;;;9.25;3.20;;;;;;;;;;4877666;29;20041;-73
2021/11/07 04:48:28;;;;;;;6.85;3.25;;;;;;;;;;4877691;29;20041;-73
2021/11/07 04:51:32;;;;;;;6.43;2.95;;;;;;;;;;4877853;29;20045;-73
2021/11/07 04:54:36;;;;;;;7.18;3.30;;;;;;;;;;4877771;29;20049;-73
2021/11/07 04:57:43;;;;;;;7.25;3.60;;;;;;;;;;4877696;29;20374;-74
2021/11/07 05:00:47;;;;;;;8.80;3.40;;;;;;;;;;4877788;29;20053;-73
2021/11/07 05:03:52;;;;;;;13.30;3.97;;;;;;;;;;4877659;29;20485;-73
2021/11/07 05:06:56;;;;;;;6.65;3.47;;;;;;;;;;4877699;29;20045;-74
2021/11/07 05:10:00;;;;;;;5.85;3.58;;;;;;;;;;4877666;29;20045;-74
2021/11/07 05:13:05;;;;;;;12.52;3.55;;;;;;;;;;4877488;29;20033;-73
2021/11/07 05:16:09;;;;;;;8.32;3.75;;;;;;;;;;4877602;29;20045;-73
2021/11/07 05:19:13;;;;;;;11.02;3.50;;;;;;;;;;4877631;29;20481;-73
2021/11/07 05:22:18;;;;;;;7.97;3.35;;;;;;;;;;4877337;29;20401;-73
2021/11/07 05:25:22;;;;;;;9.07;3.50;;;;;;;;;;4877518;29;20049;-73
2021/11/07 05:28:27;;;;;;;7.40;3.40;;;;;;;;;;4877334;29;20041;-72
2021/11/07 05:31:32;;;;;;;6.95;3.58;;;;;;;;;;4877188;29;20045;-73
2021/11/07 05:34:40;;;;;;;12.20;3.40;;;;;;;;;;4877421;29;20041;-73
2021/11/07 05:37:44;;;;;;;5.40;3.25;;;;;;;;;;4877353;29;20033;-73
2021/11/07 05:40:49;;;;;;;7.55;3.47;;;;;;;;;;4877298;29;20045;-73
2021/11/07 05:43:53;;;;;;;6.57;3.30;;;;;;;;;;4877186;29;20040;-73
2021/11/07 05:46:57;;;;;;;9.68;3.83;;;;;;;;;;4877822;29;20041;-73
2021/11/07 05:50:01;;;;;;;5.65;3.28;;;;;;;;;;4880676;29;20041;-73
2021/11/07 05:53:06;;;;;;;7.22;3.53;;;;;;;;;;4880637;29;20045;-73
2021/11/07 05:56:10;;;;;;;10.07;3.35;;;;;;;;;;4879820;29;20057;-74
2021/11/07 05:59:14;;;;;;;10.88;3.60;;;;;;;;;;4880772;29;20045;-73
2021/11/07 06:02:20;;;;;;;9.60;3.38;;;;;;;;;;4879653;29;20045;-73
2021/11/07 06:05:24;;;;;;;7.30;3.67;;;;;;;;;;4879928;29;20041;-73
2021/11/07 06:08:28;;;;;;;12.80;3.72;;;;;;;;;;4880653;29;20045;-73
2021/11/07 06:11:32;;;;;;;7.45;3.80;;;;;;;;;;4879508;29;20360;-74
2021/11/07 06:14:37;;;;;;;12.38;3.90;;;;;;;;;;4880474;29;20044;-72
2021/11/07 06:17:40;;;;;;;9.43;3.00;;;;;;;;;;4890310;29;20052;-73
2021/11/07 06:20:45;;;;;;;10.52;3.40;;;;;;;;;;4880398;29;20041;-72
2021/11/07 06:23:49;;;;;;;12.45;3.70;;;;;;;;;;4880435;29;20048;-72
2021/11/07 06:26:56;;;;;;;5.93;3.70;;;;;;;;;;4880150;29;20401;-72
2021/11/07 06:30:01;;;;;;;8.68;3.63;;;;;;;;;;4879911;29;20053;-73
2021/11/07 06:33:08;;;;;;;10.05;4.28;;;;;;;;;;4880212;29;20053;-73
2021/11/07 06:36:13;;;;;;;5.35;3.22;;;;;;;;;;4879838;29;20048;-73
2021/11/07 06:39:18;;;;;;;9.95;3.50;;;;;;;;;;4880204;29;20036;-72
2021/11/07 06:42:21;;;;;;;8.60;3.63;;;;;;;;;;4889835;29;20041;-73
2021/11/07 06:45:26;;;;;;;9.00;3.90;;;;;;;;;;4879940;29;20045;-72
2021/11/07 06:48:31;;;;;;;10.90;4.13;;;;;;;;;;4879985;29;20045;-73
2021/11/07 06:51:36;;;;;;;11.02;3.90;;;;;;;;;;4879985;29;20077;-72
2021/11/07 06:54:39;;;;;;;7.90;3.25;;;;;;;;;;4879732;29;20037;-72
2021/11/07 06:57:44;;;;;;;9.23;3.60;;;;;;;;;;4879548;29;20045;-72
2021/11/07 07:00:48;;;;;;;8.18;3.60;;;;;;;;;;4879324;29;20041;-72
2021/11/07 07:03:52;;;;;;;10.63;4.20;;;;;;;;;;4889590;29;20053;-73
2021/11/07 07:06:57;;;;;;;7.25;3.10;;;;;;;;;;4879717;29;20045;-73
2021/11/07 07:10:03;;;;;;;10.15;3.38;;;;;;;;;;4879373;29;20049;-73
2021/11/07 07:13:14;;;;;;;10.80;3.85;;;;;;;;;;4879297;29;20044;-72
2021/11/07 07:32:58;;;;;;;7.43;3.45;;;;;;;;;;4879137;29;20033;-73
2021/11/07 07:36:03;;;;;;;7.95;3.55;;;;;;;;;;4878878;29;20037;-73
2021/11/07 07:39:08;;;;;;;6.85;3.80;;;;;;;;;;4879051;29;20485;-73
2021/11/07 07:42:13;;;;;;;10.48;3.70;;;;;;;;;;4877869;29;20049;-73
2021/11/07 07:45:17;;;;;;;9.52;3.22;;;;;;;;;;4878889;29;20041;-73
2021/11/07 07:48:22;;;;;;;7.93;3.95;;;;;;;;;;4878613;29;20045;-73
2021/11/07 07:51:29;;;;;;;8.05;3.72;;;;;;;;;;4878611;29;20454;-73
2021/11/07 07:54:35;;;;;;;14.57;3.45;;;;;;;;;;4878519;29;20041;-73
2021/11/07 07:57:40;;;;;;;9.65;3.45;;;;;;;;;;4878669;29;20037;-74
2021/11/07 08:00:45;;;;;;;6.07;3.30;;;;;;;;;;4877866;29;20041;-73
2021/11/07 08:03:49;;;;;;;7.63;3.38;;;;;;;;;;4877739;29;20044;-74
2021/11/07 08:06:56;;;;;;;7.90;4.05;;;;;;;;;;4878416;29;20073;-74
2021/11/07 08:10:00;;;;;;;7.35;3.17;;;;;;;;;;4878088;29;20040;-74
2021/11/07 08:13:05;;;;;;;5.40;3.58;;;;;;;;;;4878146;29;20033;-74
2021/11/07 08:16:09;;;;;;;8.63;3.55;;;;;;;;;;4878097;29;20387;-74
2021/11/07 08:19:15;;;;;;;10.55;3.10;;;;;;;;;;4878173;29;20049;-74
2021/11/07 08:22:19;;;;;;;8.75;3.70;;;;;;;;;;4877269;29;20513;-74
2021/11/07 08:25:24;;;;;;;9.20;3.25;;;;;;;;;;4878057;29;20033;-73
2021/11/07 08:28:29;;;;;;;8.80;3.33;;;;;;;;;;4877893;29;20037;-74
2021/11/07 08:31:35;;;;;;;9.70;3.22;;;;;;;;;;4877963;29;20514;-74
2021/11/07 08:34:39;;;;;;;7.57;3.67;;;;;;;;;;4877579;29;20037;-73
2021/11/07 08:37:51;;;;;;;6.53;3.58;;;;;;;;;;4877737;29;20040;-74
2021/11/07 08:40:57;;;;;;;7.53;3.55;;;;;;;;;;4877724;29;20497;-74
2021/11/07 09:01:00;;;;;;;10.35;3.55;;;;;;;;;;4877506;29;20033;-74
2021/11/07 09:10:38;;;;;;;11.55;3.95;;;;;;;;;;4876360;29;20041;-74
2021/11/07 09:13:43;;;;;;;7.13;3.55;;;;;;;;;;4877233;29;20048;-75
2021/11/07 09:16:48;;;;;;;8.70;3.58;;;;;;;;;;4877364;29;20147;-74
2021/11/07 09:19:55;;;;;;;9.52;3.60;;;;;;;;;;4876750;29;20037;-74
2021/11/07 09:29:32;;;;;;;16.15;3.88;;;;;;;;;;4880916;29;20394;-74
2021/11/07 09:46:08;;;;;;;10.20;4.00;;;;;;;;;;4881133;29;20052;-74
2021/11/07 09:48:50;;;;;;;11.45;4.15;;;;;;;;;;4884004;29;20692;-74
2021/11/07 09:52:10;;;;;;;6.63;4.03;;;;;;;;;;4880648;29;20037;-73
2021/11/07 09:55:15;;;;;;;11.05;4.05;;;;;;;;;;4890393;29;20041;-74
2021/11/07 09:58:21;;;;;;;10.38;4.10;;;;;;;;;;4880384;29;20045;-73
2021/11/07 10:01:27;;;;;;;10.57;4.15;;;;;;;;;;4880649;29;20047;-73
2021/11/07 10:04:35;;;;;;;8.43;4.03;;;;;;;;;;4880262;29;20061;-74
2021/11/07 10:07:41;;;;;;;9.88;4.25;;;;;;;;;;4880516;29;20037;-74
2021/11/07 10:10:54;;;;;;;8.45;4.50;;;;;;;;;;4880399;29;20044;-74
2021/11/07 10:14:16;;;;;;;10.20;4.45;;;;;;;;;;4879455;29;20343;-74
2021/11/07 10:17:24;;;;;;;10.68;4.10;;;;;;;;;;4880279;29;20033;-74
2021/11/07 10:20:38;;;;;;;19.33;4.50;;;;;;;;;;4880396;29;20049;-74
2021/11/07 10:23:47;;;;;;;11.18;4.07;;;;;;;;;;4880135;29;20552;-73
2021/11/07 10:26:59;;;;;;;9.20;3.97;;;;;;;;;;4879825;29;20033;-74
2021/11/07 10:30:32;;;;;;;10.48;3.55;;;;;;;;;;4879837;29;20060;-74
2021/11/07 10:40:34;;;;;;;9.85;4.22;;;;;;;;;;4879860;29;20041;-74
2021/11/07 10:53:42;;;;;;;17.15;6.10;;;;;;;;;;4879444;29;20049;-74
2021/11/07 10:56:47;;;;;;;15.38;5.28;;;;;;;;;;4879771;29;20050;-74
2021/11/07 11:00:10;;;;;;;16.55;5.50;;;;;;;;;;4879377;29;20045;-74
2021/11/07 11:03:18;;;;;;;19.88;7.38;;;;;;;;;;4879436;29;20048;-74
2021/11/07 11:06:22;;;;;;;15.95;7.28;;;;;;;;;;4879523;29;20053;-73
2021/11/07 11:09:30;;;;;;;11.50;5.50;;;;;;;;;;4879244;29;20053;-74
2021/11/07 11:12:35;;;;;;;11.43;4.40;;;;;;;;;;4879277;29;20049;-73
2021/11/07 11:15:50;;;;;;;11.57;4.75;;;;;;;;;;4879200;29;20405;-73
2021/11/07 11:28:39;;;;;;;9.32;3.67;;;;;;;;;;4878527;29;20497;-74
2021/11/07 11:38:59;;;;;;;15.02;4.97;;;;;;;;;;4878875;29;20059;-74
2021/11/07 11:42:25;;;;;;;15.27;3.97;;;;;;;;;;4878772;29;20049;-74
2021/11/07 11:45:26;;;;;;;11.55;3.55;;;;;;;;;;4877648;29;20510;-74
2021/11/07 11:56:02;;;;;;;10.88;4.00;;;;;;;;;;4877711;29;20045;-74
2021/11/07 11:59:00;;;;;;;12.82;3.88;;;;;;;;;;4878557;29;20037;-74
2021/11/07 12:02:40;;;;;;;13.68;4.20;;;;;;;;;;4878210;29;20044;-74
2021/11/07 12:05:58;;;;;;;15.15;5.20;;;;;;;;;;4878357;29;20041;-74
2021/11/07 12:12:35;;;;;;;8.20;3.70;;;;;;;;;;4877352;29;20037;-74
2021/11/07 12:15:51;;;;;;;16.17;4.20;;;;;;;;;;4878311;29;20049;-74
2021/11/07 12:19:09;;;;;;;9.73;3.55;;;;;;;;;;4878215;29;20044;-74
2021/11/07 12:22:18;;;;;;;10.07;3.13;;;;;;;;;;4878253;29;20053;-74
2021/11/07 12:25:28;;;;;;;9.60;3.22;;;;;;;;;;4878059;29;20608;-74
2021/11/07 12:28:59;;;;;;;7.40;3.63;;;;;;;;;;4878085;29;20040;-74
2021/11/07 12:32:06;;;;;;;12.55;3.50;;;;;;;;;;4878107;29;20049;-74
2021/11/07 12:35:19;;;;;;;7.65;3.45;;;;;;;;;;4877774;29;20049;-74
2021/11/07 12:42:08;;;;;;;8.63;4.00;;;;;;;;;;4877999;29;20056;-74
2021/11/07 12:45:40;;;;;;;8.05;3.33;;;;;;;;;;4877937;29;20045;-74
2021/11/07 12:48:46;;;;;;;12.45;3.70;;;;;;;;;;4887567;29;20040;-74
2021/11/07 12:51:52;;;;;;;12.20;3.78;;;;;;;;;;4876867;29;20041;-74
2021/11/07 12:54:56;;;;;;;8.40;3.97;;;;;;;;;;4877651;29;20044;-74
2021/11/07 12:58:00;;;;;;;13.02;4.47;;;;;;;;;;4877804;29;20037;-74
2021/11/07 13:01:04;;;;;;;6.65;3.15;;;;;;;;;;4877839;29;20733;-74
2021/11/07 13:04:09;;;;;;;8.43;3.80;;;;;;;;;;4877423;29;20045;-74
2021/11/07 13:07:18;;;;;;;11.90;3.40;;;;;;;;;;4876679;29;20037;-74
2021/11/07 13:10:46;;;;;;;6.13;2.65;;;;;;;;;;4877416;29;20051;-75
2021/11/07 13:14:11;;;;;;;14.10;3.10;;;;;;;;;;4877585;29;20037;-75
2021/11/07 13:27:42;;;;;;;10.13;3.75;;;;;;;;;;4822960;29;20046;-74
2021/11/07 13:30:56;;;;;;;8.10;3.50;;;;;;;;;;4877378;29;20064;-75
2021/11/07 13:34:08;;;;;;;8.77;3.10;;;;;;;;;;4876320;29;20486;-74
2021/11/07 13:37:19;;;;;;;7.63;3.38;;;;;;;;;;4877178;29;20041;-74
2021/11/07 13:40:33;;;;;;;9.77;3.70;;;;;;;;;;4877518;29;20478;-74
2021/11/07 13:43:38;;;;;;;13.77;3.30;;;;;;;;;;4877113;29;20053;-75
2021/11/07 13:46:52;;;;;;;10.23;3.40;;;;;;;;;;4877347;29;20029;-74
2021/11/07 13:49:59;;;;;;;10.23;3.65;;;;;;;;;;4877343;29;20056;-74
2021/11/07 13:53:04;;;;;;;9.95;3.22;;;;;;;;;;4876233;29;20045;-74
2021/11/07 13:56:11;;;;;;;8.18;3.05;;;;;;;;;;4876210;29;20040;-74
2021/11/07 13:59:27;;;;;;;14.10;3.28;;;;;;;;;;4877344;29;20502;-73
2021/11/07 14:02:32;;;;;;;10.25;3.25;;;;;;;;;;4877051;29;20481;-74
2021/11/07 14:05:40;;;;;;;12.98;3.75;;;;;;;;;;4876415;29;20052;-74
2021/11/07 14:08:46;;;;;;;11.27;2.80;;;;;;;;;;4879454;29;20029;-74
2021/11/07 14:11:54;;;;;;;13.32;3.33;;;;;;;;;;4880540;29;20060;-74
2021/11/07 14:15:05;;;;;;;11.30;3.17;;;;;;;;;;4880228;29;20052;-74
2021/11/07 14:18:17;;;;;;;11.48;3.22;;;;;;;;;;4880564;29;20048;-74
2021/11/07 14:21:26;;;;;;;11.55;3.65;;;;;;;;;;4880398;29;20052;-74
2021/11/07 14:24:33;;;;;;;7.72;3.03;;;;;;;;;;4880486;29;20049;-74
2021/11/07 14:27:48;;;;;;;8.02;2.65;;;;;;;;;;4880400;29;20044;-74
2021/11/07 14:30:53;;;;;;;10.15;2.88;;;;;;;;;;4880078;29;20053;-74
2021/11/07 14:34:21;;;;;;;9.95;2.50;;;;;;;;;;4880244;29;20044;-74
2021/11/07 14:37:28;;;;;;;8.25;3.00;;;;;;;;;;4879816;29;20037;-74
2021/11/07 14:44:05;;;;;;;8.15;2.58;;;;;;;;;;4879740;29;20401;-74
2021/11/07 14:47:24;;;;;;;7.22;2.63;;;;;;;;;;4879052;29;20037;-74
2021/11/07 14:53:48;;;;;;;10.98;2.25;;;;;;;;;;4879907;29;20040;-74
2021/11/07 15:00:13;;;;;;;6.20;2.50;;;;;;;;;;4879522;29;20037;-74
2021/11/07 15:03:21;;;;;;;10.57;2.95;;;;;;;;;;4878649;29;20057;-74
2021/11/07 15:09:47;;;;;;;6.28;2.50;;;;;;;;;;4878731;29;20045;-74
2021/11/07 15:13:24;;;;;;;10.73;3.58;;;;;;;;;;4879068;29;20041;-74
2021/11/07 15:19:58;;;;;;;6.63;3.20;;;;;;;;;;4877980;29;20041;-74
2021/11/07 15:23:03;;;;;;;9.32;3.45;;;;;;;;;;4878887;29;20402;-74
2021/11/07 15:26:22;;;;;;;12.40;4.40;;;;;;;;;;4879337;29;20185;-74
2021/11/07 15:29:32;;;;;;;7.55;3.13;;;;;;;;;;4878813;29;20067;-74
2021/11/07 15:32:38;;;;;;;12.97;3.17;;;;;;;;;;4878434;29;20053;-74
2021/11/07 15:35:50;;;;;;;11.40;2.72;;;;;;;;;;4878781;29;20037;-74
2021/11/07 15:39:06;;;;;;;10.10;2.80;;;;;;;;;;4878846;29;20045;-74
2021/11/07 15:42:12;;;;;;;11.82;2.97;;;;;;;;;;4878415;29;20050;-74
2021/11/07 15:45:22;;;;;;;9.43;2.60;;;;;;;;;;4878649;29;20056;-74
2021/11/07 15:48:30;;;;;;;11.95;2.70;;;;;;;;;;4878967;29;20049;-74
2021/11/07 15:51:49;;;;;;;9.88;2.65;;;;;;;;;;4878999;29;20586;-74
2021/11/07 16:17:40;;;;;;;7.65;3.53;;;;;;;;;;4878070;29;20040;-74
2021/11/07 16:20:44;;;;;;;14.02;4.13;;;;;;;;;;4878139;29;20041;-74
2021/11/07 16:23:49;;;;;;;12.95;3.88;;;;;;;;;;4878083;29;20090;-74
2021/11/07 16:26:58;;;;;;;14.35;3.60;;;;;;;;;;4877173;29;20029;-74
2021/11/07 16:30:04;;;;;;;15.68;6.75;;;;;;;;;;4877496;29;20520;-74
2021/11/07 16:33:21;;;;;;;9.68;3.97;;;;;;;;;;4876940;29;20041;-74
2021/11/07 16:36:33;;;;;;;7.43;4.07;;;;;;;;;;4887798;29;20041;-74
2021/11/07 16:39:43;;;;;;;9.15;3.75;;;;;;;;;;4877858;29;20041;-74
2021/11/07 16:42:47;;;;;;;13.10;3.58;;;;;;;;;;4877853;29;20045;-74
2021/11/07 16:45:53;;;;;;;9.90;2.83;;;;;;;;;;4877912;29;20391;-74
2021/11/07 16:49:00;;;;;;;10.77;3.50;;;;;;;;;;4876650;29;20171;-74
2021/11/07 16:52:16;;;;;;;7.53;3.22;;;;;;;;;;4877524;29;20064;-74
2021/11/07 16:55:56;;;;;;;17.15;3.65;;;;;;;;;;4866093;29;20379;-74
2021/11/07 17:02:28;;;;;;;13.65;5.45;;;;;;;;;;4879406;29;20481;-74
2021/11/07 17:05:37;;;;;;;10.90;3.50;;;;;;;;;;4876591;29;20056;-74
2021/11/07 17:09:06;;;;;;;13.70;4.63;;;;;;;;;;4877412;29;20273;-74
2021/11/07 17:12:18;;;;;;;13.07;4.10;;;;;;;;;;4875720;29;20045;-74
2021/11/07 17:15:32;;;;;;;15.68;3.78;;;;;;;;;;4876377;29;20375;-74
2021/11/07 17:18:37;;;;;;;10.23;3.63;;;;;;;;;;4877095;29;20033;-74
2021/11/07 17:21:52;;;;;;;18.33;4.53;;;;;;;;;;4877037;29;20504;-74
2021/11/07 17:25:05;;;;;;;15.45;4.47;;;;;;;;;;4876673;29;20517;-73
2021/11/07 17:34:43;;;;;;;14.38;3.88;;;;;;;;;;4877004;29;20037;-74
2021/11/07 17:37:57;;;;;;;19.45;4.55;;;;;;;;;;4876854;29;20048;-74
2021/11/07 17:54:45;;;;;;;8.90;3.80;;;;;;;;;;4880421;29;20033;-74
2021/11/07 17:57:53;;;;;;;14.95;4.18;;;;;;;;;;4880733;29;20049;-74
2021/11/07 18:00:58;;;;;;;16.98;5.65;;;;;;;;;;4879696;29;20049;-74
2021/11/07 18:04:03;;;;;;;15.65;6.45;;;;;;;;;;4880406;29;20403;-74
2021/11/07 18:07:11;;;;;;;26.17;7.28;;;;;;;;;;4880148;29;20526;-74
2021/11/07 18:10:16;;;;;;;22.50;6.47;;;;;;;;;;4880263;29;20041;-74
2021/11/07 18:13:30;;;;;;;13.10;5.05;;;;;;;;;;4880033;29;20041;-74
2021/11/07 18:16:34;;;;;;;15.05;5.03;;;;;;;;;;4880395;29;20053;-74
2021/11/07 18:19:38;;;;;;;18.73;4.50;;;;;;;;;;4880239;29;20044;-74
2021/11/07 18:22:47;;;;;;;16.73;5.05;;;;;;;;;;4880120;29;20407;-74
2021/11/07 18:26:00;;;;;;;15.10;5.57;;;;;;;;;;4880157;29;20048;-74
2021/11/07 18:29:04;;;;;;;14.18;5.63;;;;;;;;;;4878947;29;20390;-74
2021/11/07 18:32:09;;;;;;;14.98;6.53;;;;;;;;;;4880053;29;20033;-74
2021/11/07 18:35:14;;;;;;;12.43;5.80;;;;;;;;;;4880080;29;20358;-74
2021/11/07 18:38:26;;;;;;;16.73;5.85;;;;;;;;;;4879799;29;20049;-74
2021/11/07 18:41:30;;;;;;;14.23;5.93;;;;;;;;;;4879964;29;20052;-74
2021/11/07 18:44:35;;;;;;;15.50;5.95;;;;;;;;;;4879809;29;20048;-74
2021/11/07 18:47:39;;;;;;;16.13;5.90;;;;;;;;;;4879950;29;20052;-74
2021/11/07 18:50:46;;;;;;;15.02;5.85;;;;;;;;;;4879947;29;20072;-74
2021/11/07 18:53:50;;;;;;;17.08;5.65;;;;;;;;;;4879436;29;20049;-74
2021/11/07 18:56:54;;;;;;;16.42;6.55;;;;;;;;;;4879735;29;20053;-74
2021/11/07 18:59:58;;;;;;;15.25;5.45;;;;;;;;;;4868069;29;20049;-74
2021/11/07 19:03:04;;;;;;;13.65;6.07;;;;;;;;;;4879133;29;20037;-74
2021/11/07 19:06:07;;;;;;;17.27;4.93;;;;;;;;;;4889361;29;20043;-74
2021/11/07 19:09:12;;;;;;;14.30;5.80;;;;;;;;;;4879468;29;20037;-74
2021/11/07 19:12:16;;;;;;;21.25;5.97;;;;;;;;;;4879084;29;20041;-74
2021/11/07 19:15:22;;;;;;;17.52;6.88;;;;;;;;;;4878905;29;20040;-74
2021/11/07 19:18:29;;;;;;;20.58;7.95;;;;;;;;;;4879275;29;20045;-75
2021/11/07 19:21:33;;;;;;;14.68;7.18;;;;;;;;;;4878811;29;20041;-74
2021/11/07 19:24:37;;;;;;;17.50;7.22;;;;;;;;;;4878760;29;20048;-74
2021/11/07 19:27:42;;;;;;;18.42;6.85;;;;;;;;;;4878996;29;20041;-74
2021/11/07 19:30:47;;;;;;;20.45;7.45;;;;;;;;;;4879083;29;20469;-74
2021/11/07 19:33:51;;;;;;;20.58;7.70;;;;;;;;;;4879137;29;20473;-74
2021/11/07 19:36:56;;;;;;;24.48;8.55;;;;;;;;;;4879002;29;20048;-74
2021/11/07 19:40:01;;;;;;;19.45;7.50;;;;;;;;;;4878923;29;20366;-74
2021/11/07 19:43:07;;;;;;;34.53;7.47;;;;;;;;;;4878526;29;20162;-74
2021/11/07 19:46:14;;;;;;;24.80;9.40;;;;;;;;;;4878758;29;20044;-74
2021/11/07 19:49:23;;;;;;;22.92;10.27;;;;;;;;;;4878666;29;20056;-74
2021/11/07 19:52:34;;;;;;;26.33;10.20;;;;;;;;;;4878694;29;20052;-74
2021/11/07 19:55:38;;;;;;;21.42;9.43;;;;;;;;;;4878569;29;20056;-74
2021/11/07 19:58:42;;;;;;;26.33;10.38;;;;;;;;;;4877193;29;20044;-74
2021/11/07 20:05:25;;;;;;;24.77;10.40;;;;;;;;;;4877652;29;20064;-74
2021/11/07 20:11:20;;;;;;;20.25;9.15;;;;;;;;;;4878175;29;20049;-74
2021/11/07 20:14:29;;;;;;;25.63;10.57;;;;;;;;;;4878513;29;20049;-74
2021/11/07 20:17:34;;;;;;;17.73;9.38;;;;;;;;;;4878015;29;20048;-74
2021/11/07 20:20:39;;;;;;;23.42;9.95;;;;;;;;;;4878002;29;20041;-74
2021/11/07 20:23:50;;;;;;;24.95;11.25;;;;;;;;;;4877607;29;20056;-74
2021/11/07 20:26:57;;;;;;;19.20;9.27;;;;;;;;;;4877846;29;20044;-74
2021/11/07 20:30:02;;;;;;;21.65;8.88;;;;;;;;;;4876901;29;20053;-74
2021/11/07 20:33:09;;;;;;;20.55;8.95;;;;;;;;;;4877888;29;20055;-74
2021/11/07 20:36:26;;;;;;;16.63;9.70;;;;;;;;;;4877637;29;20053;-74
2021/11/07 20:39:31;;;;;;;17.00;9.75;;;;;;;;;;4877633;29;20441;-74
2021/11/07 20:42:39;;;;;;;24.90;9.65;;;;;;;;;;4877384;29;20041;-74
2021/11/07 20:49:29;;;;;;;15.55;8.93;;;;;;;;;;4882181;29;20036;-73
2021/11/07 20:52:37;;;;;;;19.55;9.35;;;;;;;;;;4865860;29;20052;-74
2021/11/07 21:02:20;;;;;;;20.88;12.25;;;;;;;;;;4877763;29;20418;-74
2021/11/07 21:05:27;;;;;;;25.30;14.77;;;;;;;;;;4877669;29;20056;-74
2021/11/07 21:08:46;;;;;;;23.08;12.32;;;;;;;;;;4877326;29;20052;-74
2021/11/07 21:28:01;;;;;;;20.55;9.85;;;;;;;;;;4876525;29;20048;-74
2021/11/07 21:31:12;;;;;;;17.80;10.88;;;;;;;;;;4876982;29;20076;-75
2021/11/07 21:34:32;;;;;;;23.52;11.70;;;;;;;;;;4877270;29;20044;-74
2021/11/07 21:37:41;;;;;;;20.83;11.90;;;;;;;;;;4876894;29;20155;-74
2021/11/07 21:41:06;;;;;;;21.88;9.85;;;;;;;;;;4877059;29;20044;-74
2021/11/07 21:44:11;;;;;;;22.45;9.98;;;;;;;;;;4876810;29;20053;-75
2021/11/07 21:47:17;;;;;;;18.55;9.20;;;;;;;;;;4865369;29;20041;-74
2021/11/07 21:50:21;;;;;;;26.92;9.82;;;;;;;;;;4877321;29;20049;-75
2021/11/07 21:53:26;;;;;;;24.38;11.25;;;;;;;;;;4876908;29;20045;-74
2021/11/07 21:56:30;;;;;;;20.17;9.95;;;;;;;;;;4876994;29;20044;-75
2021/11/07 21:59:35;;;;;;;18.90;8.90;;;;;;;;;;4877047;29;20064;-75
2021/11/07 22:02:40;;;;;;;16.80;10.13;;;;;;;;;;4876028;29;20048;-75
2021/11/07 22:05:44;;;;;;;19.50;10.95;;;;;;;;;;4877166;29;20052;-75
2021/11/07 22:08:49;;;;;;;18.95;10.05;;;;;;;;;;4877162;29;20040;-75
2021/11/07 22:11:55;;;;;;;16.38;9.27;;;;;;;;;;4876570;29;20064;-75
2021/11/07 22:15:05;;;;;;;20.52;10.30;;;;;;;;;;4876052;29;20041;-73
2021/11/07 22:18:13;;;;;;;18.10;9.20;;;;;;;;;;4876888;29;20060;-73
2021/11/07 22:21:22;;;;;;;17.60;10.35;;;;;;;;;;4876622;29;20041;-73
2021/11/07 22:24:34;;;;;;;21.85;9.85;;;;;;;;;;4876429;29;20075;-73
2021/11/07 22:27:48;;;;;;;21.17;10.52;;;;;;;;;;4876483;29;20048;-73
2021/11/07 22:30:53;;;;;;;21.92;10.68;;;;;;;;;;4879923;29;20068;-73
2021/11/07 22:34:02;;;;;;;22.88;11.05;;;;;;;;;;4880294;29;20040;-74
2021/11/07 22:37:06;;;;;;;22.27;10.77;;;;;;;;;;4879849;29;20221;-74
2021/11/07 22:40:11;;;;;;;20.55;11.05;;;;;;;;;;4880035;29;20052;-74
2021/11/07 22:43:19;;;;;;;16.38;9.70;;;;;;;;;;4879527;29;20052;-74
2021/11/07 22:46:26;;;;;;;20.10;10.52;;;;;;;;;;4879950;29;20425;-74
2021/11/07 22:49:30;;;;;;;18.02;10.55;;;;;;;;;;4879921;29;20052;-74